Portada
METAR-TAF:

METAR-TAF

Aeroports :

Hohhot, Xina

latitud: 40-49N, longitud: 111-41E, altitud: 1065 m

Observació

L'informe es va fer fa 20 minuts, a les 20:00 UTC
Vent 2 kt amb direcció variable
Temperatura 17°C
Humitat 100%
Pressió 1010 hPa
Visibilitat: 4500 m
Escasses núvols a una alçada de 3000 ft
pluja, boirina

METAR: ZBHH 162000Z VRB01MPS 4500 -RA BR FEW030 17/17 Q1010 NOSIG

Hora: 04:20 (20:20 UTC)

Pronòstic

L'informe es va fer fa 5 hores i 20 minuts, a les 15:00 UTC
Pronòstic vàlid del 16 a les 18 UTC al 17 a les 18 UTC
Vent 8 kt del Est
Visibilitat: 6000 m
Núvols disperses a una alçada de 4000 ft
Temporalment
l' 17 a les 04 UTC al 17 a les 08 UTC
Escasses núvols a una alçada de 4000 ft, Cumulonimbus.
Núvols disperses a una alçada de 4000 ft
tempesta, pluja

TAF: ZBHH 161500Z 1618/1718 10004MPS 6000 SCT040 TX28/1707Z TN14/1621Z TEMPO 1704/1708 -TSRA FEW040CB SCT040

Observacions i pronòstics meteorològics de més de 4000 aeroports (METAR i TAF).

Les estacions disponibles són els punts grocs i vermells al mapa.

Posi el ratolí al punt desitjat per veure el nom de l'estació.

Feu clic per veure les observacions i els pronòstics meteorològics.

Per canviar el mapa: feu clic els botons verds amb una creu de color negre per apropar; al botó verd amb un guió per allunyar la imatge; o en les fletxes verdes per a mapes adjacents.


METAR-TAF: